createdAt,value
2018-12-19T00:01:17.268Z,2.47
2018-12-19T00:03:45.618Z,2.87
2018-12-19T00:06:14.021Z,2.87
2018-12-19T00:08:42.421Z,2.83
2018-12-19T00:11:10.843Z,3.25
2018-12-19T00:13:39.262Z,2.67
2018-12-19T00:16:07.922Z,3.12
2018-12-19T00:18:37.008Z,3.37
2018-12-19T00:21:05.421Z,3.27
2018-12-19T00:23:34.044Z,3.12
2018-12-19T00:26:02.832Z,3.72
2018-12-19T00:28:32.051Z,2.90
2018-12-19T00:31:00.705Z,3.42
2018-12-19T00:33:29.163Z,3.70
2018-12-19T00:35:57.826Z,4.22
2018-12-19T00:38:26.271Z,3.10
2018-12-19T00:40:55.153Z,3.10
2018-12-19T00:43:23.511Z,2.87
2018-12-19T00:45:52.667Z,2.80
2018-12-19T00:48:21.073Z,4.05
2018-12-19T00:50:49.521Z,2.87
2018-12-19T00:53:18.156Z,2.85
2018-12-19T00:55:46.579Z,2.95
2018-12-19T00:58:15.044Z,3.85
2018-12-19T01:00:45.101Z,2.77
2018-12-19T01:03:13.515Z,3.50
2018-12-19T01:05:41.896Z,2.70
2018-12-19T01:08:10.700Z,2.50
2018-12-19T01:10:39.264Z,2.87
2018-12-19T01:13:08.012Z,2.62
2018-12-19T01:15:36.389Z,3.27
2018-12-19T01:18:05.258Z,2.95
2018-12-19T01:20:33.795Z,2.83
2018-12-19T01:23:02.150Z,3.67
2018-12-19T01:25:30.722Z,2.77
2018-12-19T01:27:59.772Z,2.83
2018-12-19T01:30:28.502Z,3.58
2018-12-19T01:32:56.836Z,2.80
2018-12-19T01:35:26.434Z,3.42
2018-12-19T01:37:55.137Z,2.62
2018-12-19T01:40:23.605Z,2.83
2018-12-19T01:42:52.239Z,3.10
2018-12-19T01:45:20.680Z,3.10
2018-12-19T01:47:49.524Z,2.85
2018-12-19T01:50:18.112Z,3.50
2018-12-19T01:52:46.992Z,2.87
2018-12-19T01:55:15.581Z,3.10
2018-12-19T01:57:43.965Z,3.47
2018-12-19T02:00:13.129Z,3.70
2018-12-19T02:02:41.545Z,3.30
2018-12-19T02:05:09.957Z,2.98
2018-12-19T02:07:39.505Z,3.35
2018-12-19T02:10:08.893Z,3.20
2018-12-19T02:12:37.494Z,3.47
2018-12-19T02:15:06.300Z,3.20
2018-12-19T02:17:35.070Z,2.62
2018-12-19T02:20:04.221Z,3.17
2018-12-19T02:22:32.575Z,2.85
2018-12-19T02:25:01.032Z,3.02
2018-12-19T02:27:29.546Z,2.87
2018-12-19T02:29:58.754Z,3.08
2018-12-19T02:32:27.109Z,3.00
2018-12-19T02:34:55.757Z,2.80
2018-12-19T02:37:24.148Z,3.00
2018-12-19T02:39:52.589Z,3.15
2018-12-19T02:42:21.315Z,3.30
2018-12-19T02:44:49.774Z,2.40
2018-12-19T02:47:18.434Z,3.62
2018-12-19T02:49:47.330Z,3.20
2018-12-19T02:52:15.661Z,3.47
2018-12-19T02:54:46.386Z,3.45
2018-12-19T02:57:15.264Z,3.47
2018-12-19T02:59:43.881Z,4.10
2018-12-19T03:02:12.681Z,3.65
2018-12-19T03:04:41.331Z,3.20
2018-12-19T03:07:09.741Z,3.83
2018-12-19T03:09:42.982Z,3.50
2018-12-19T03:12:09.899Z,3.45
2018-12-19T03:14:38.430Z,3.70
2018-12-19T03:17:06.878Z,4.10
2018-12-19T03:19:35.392Z,3.22
2018-12-19T03:22:04.058Z,3.40
2018-12-19T03:24:32.750Z,3.55
2018-12-19T03:27:01.145Z,3.70
2018-12-19T03:29:29.559Z,3.77
2018-12-19T03:31:58.590Z,3.33
2018-12-19T03:34:27.056Z,3.83
2018-12-19T03:36:55.488Z,4.40
2018-12-19T03:39:24.103Z,3.55
2018-12-19T03:41:52.769Z,3.60
2018-12-19T03:44:21.779Z,4.37
2018-12-19T03:46:50.221Z,4.42
2018-12-19T03:49:19.071Z,3.70
2018-12-19T03:51:48.031Z,4.05
2018-12-19T03:54:17.077Z,4.15
2018-12-19T03:56:46.411Z,4.03
2018-12-19T03:59:14.804Z,4.30
2018-12-19T04:01:43.301Z,4.78
2018-12-19T04:04:12.186Z,5.00
2018-12-19T04:06:41.021Z,4.12
2018-12-19T04:09:09.492Z,4.87
2018-12-19T04:11:38.180Z,5.08
2018-12-19T04:14:06.908Z,5.53
2018-12-19T04:16:35.261Z,4.92
2018-12-19T04:19:03.983Z,4.85
2018-12-19T04:21:32.813Z,4.87
2018-12-19T04:24:01.500Z,5.17
2018-12-19T04:26:29.910Z,4.62
2018-12-19T04:28:58.414Z,5.83
2018-12-19T04:31:27.109Z,5.08
2018-12-19T04:33:55.893Z,4.50
2018-12-19T04:36:24.816Z,4.83
2018-12-19T04:38:53.284Z,4.50
2018-12-19T04:41:21.766Z,4.83
2018-12-19T04:43:50.246Z,6.33
2018-12-19T04:46:18.971Z,5.70
2018-12-19T04:48:48.011Z,5.72
2018-12-19T04:51:17.776Z,6.62
2018-12-19T04:53:46.821Z,5.12
2018-12-19T04:56:15.210Z,6.17
2018-12-19T04:58:43.680Z,5.78
2018-12-19T05:01:12.360Z,6.42
2018-12-19T05:03:40.850Z,6.40
2018-12-19T05:06:09.680Z,7.25
2018-12-19T05:08:39.103Z,6.78
2018-12-19T05:11:07.506Z,8.15
2018-12-19T05:13:35.905Z,7.90
2018-12-19T05:16:04.989Z,8.28
2018-12-19T05:18:35.600Z,10.05
2018-12-19T05:21:04.584Z,10.60
2018-12-19T05:23:32.968Z,9.55
2018-12-19T05:26:01.383Z,11.85
2018-12-19T05:28:29.747Z,9.98
2018-12-19T05:30:58.235Z,10.75
2018-12-19T05:33:26.682Z,9.90
2018-12-19T05:35:55.269Z,10.63
2018-12-19T05:38:23.647Z,12.30
2018-12-19T05:40:52.121Z,10.20
2018-12-19T05:43:20.550Z,9.93
2018-12-19T05:45:49.626Z,10.38
2018-12-19T05:48:17.990Z,11.05
2018-12-19T05:50:46.572Z,11.63
2018-12-19T05:53:15.634Z,10.38
2018-12-19T05:55:44.324Z,11.60
2018-12-19T05:58:12.791Z,12.93
2018-12-19T06:00:41.149Z,10.40
2018-12-19T06:03:09.541Z,12.43
2018-12-19T06:05:38.275Z,11.12
2018-12-19T06:08:06.623Z,12.63
2018-12-19T06:10:35.008Z,10.98
2018-12-19T06:13:03.620Z,12.20
2018-12-19T06:15:32.332Z,12.53
2018-12-19T06:18:00.807Z,12.28
2018-12-19T06:20:29.201Z,12.40
2018-12-19T06:22:57.624Z,10.98
2018-12-19T06:25:26.061Z,10.28
2018-12-19T06:30:30.670Z,14.13
2018-12-19T06:32:59.211Z,10.75
2018-12-19T06:35:27.576Z,13.75
2018-12-19T06:37:55.932Z,12.15
2018-12-19T06:40:25.536Z,11.90
2018-12-19T06:42:54.858Z,13.32
2018-12-19T06:45:23.959Z,11.93
2018-12-19T06:47:52.371Z,11.83
2018-12-19T06:50:20.855Z,12.60
2018-12-19T06:52:49.283Z,11.68
2018-12-19T06:55:18.061Z,11.40
2018-12-19T06:57:46.492Z,11.75
2018-12-19T07:00:15.337Z,13.10
2018-12-19T07:02:44.226Z,12.85
2018-12-19T07:05:13.506Z,12.13
2018-12-19T07:07:42.701Z,10.40
2018-12-19T07:10:11.165Z,12.30
2018-12-19T07:12:39.596Z,11.43
2018-12-19T07:15:08.829Z,10.72
2018-12-19T07:17:37.261Z,11.22
2018-12-19T07:20:05.948Z,12.25
2018-12-19T07:22:34.666Z,10.38
2018-12-19T07:25:03.387Z,12.07
2018-12-19T07:27:32.167Z,11.00
2018-12-19T07:30:00.661Z,13.45
2018-12-19T07:32:29.421Z,11.73
2018-12-19T07:34:57.915Z,11.05
2018-12-19T07:37:26.529Z,12.73
2018-12-19T07:39:56.338Z,13.15
2018-12-19T07:42:25.248Z,14.28
2018-12-19T07:44:53.964Z,12.35
2018-12-19T07:47:22.632Z,11.70
2018-12-19T07:49:51.850Z,12.68
2018-12-19T07:52:20.531Z,13.65
2018-12-19T07:54:49.520Z,12.50
2018-12-19T07:57:17.977Z,13.60
2018-12-19T07:59:46.786Z,14.43
2018-12-19T08:02:15.603Z,15.48
2018-12-19T08:04:44.603Z,16.73
2018-12-19T08:07:13.065Z,15.93
2018-12-19T08:09:43.566Z,15.00
2018-12-19T08:12:12.145Z,15.00
2018-12-19T08:14:40.862Z,14.63
2018-12-19T08:17:09.378Z,14.13
2018-12-19T08:19:37.843Z,15.13
2018-12-19T08:22:06.315Z,13.68
2018-12-19T08:24:34.745Z,13.22
2018-12-19T08:27:03.123Z,13.35
2018-12-19T08:29:31.945Z,12.28
2018-12-19T08:32:00.404Z,10.98
2018-12-19T08:34:28.932Z,10.48
2018-12-19T08:37:16.368Z,10.53
2018-12-19T08:39:44.730Z,10.70
2018-12-19T08:42:13.193Z,11.40
2018-12-19T08:44:42.041Z,9.40
2018-12-19T08:47:17.307Z,11.33
2018-12-19T08:49:45.792Z,9.98
2018-12-19T08:52:14.202Z,10.88
2018-12-19T08:54:43.636Z,9.63
2018-12-19T08:57:12.347Z,10.40
2018-12-19T08:59:40.781Z,10.82
2018-12-19T09:02:09.167Z,12.37
2018-12-19T09:04:37.519Z,12.28
2018-12-19T09:07:06.406Z,10.98
2018-12-19T09:09:35.045Z,11.57
2018-12-19T09:12:03.857Z,12.33
2018-12-19T09:14:32.281Z,13.05
2018-12-19T09:17:00.924Z,11.03
2018-12-19T09:19:30.234Z,12.18
2018-12-19T09:21:59.286Z,11.12
2018-12-19T09:24:28.023Z,11.70
2018-12-19T09:26:56.551Z,10.82
2018-12-19T09:29:24.973Z,9.85
2018-12-19T09:31:53.506Z,10.10
2018-12-19T09:34:21.996Z,11.00
2018-12-19T09:36:50.598Z,10.32
2018-12-19T09:39:19.286Z,9.70
2018-12-19T09:41:48.084Z,10.38
2018-12-19T09:44:16.628Z,11.40
2018-12-19T09:46:45.245Z,11.08
2018-12-19T09:49:14.070Z,11.45
2018-12-19T09:51:42.997Z,11.30
2018-12-19T09:54:11.633Z,10.23
2018-12-19T09:56:40.482Z,10.82
2018-12-19T09:59:08.909Z,11.45
2018-12-19T10:01:37.335Z,10.53
2018-12-19T10:04:06.043Z,10.20
2018-12-19T10:06:34.439Z,10.53
2018-12-19T10:09:04.540Z,9.18
2018-12-19T10:11:33.054Z,8.98
2018-12-19T10:14:01.510Z,9.40
2018-12-19T10:16:30.894Z,8.85
2018-12-19T10:18:59.880Z,7.55
2018-12-19T10:21:28.888Z,7.90
2018-12-19T10:23:57.821Z,7.97
2018-12-19T10:26:26.545Z,7.15
2018-12-19T10:28:54.975Z,7.62
2018-12-19T10:31:23.356Z,7.15
2018-12-19T10:33:51.802Z,7.97
2018-12-19T10:36:24.377Z,7.40
2018-12-19T10:38:52.860Z,6.87
2018-12-19T10:41:25.427Z,7.35
2018-12-19T10:43:51.882Z,5.67
2018-12-19T10:46:20.632Z,5.65
2018-12-19T10:48:49.090Z,5.58
2018-12-19T10:51:17.938Z,5.85
2018-12-19T10:53:46.320Z,5.72
2018-12-19T10:56:14.778Z,5.35
2018-12-19T10:58:43.207Z,5.53
2018-12-19T11:01:11.849Z,5.62
2018-12-19T11:03:40.319Z,4.40
2018-12-19T11:06:08.736Z,5.10
2018-12-19T11:08:37.558Z,5.15
2018-12-19T11:11:06.022Z,5.00
2018-12-19T11:13:34.499Z,5.42
2018-12-19T11:16:02.928Z,3.92
2018-12-19T11:18:31.285Z,4.65
2018-12-19T11:20:59.935Z,4.35
2018-12-19T11:23:28.377Z,3.45
2018-12-19T11:25:56.831Z,4.15
2018-12-19T11:28:25.730Z,3.83
2018-12-19T11:30:54.262Z,3.62
2018-12-19T11:33:22.650Z,4.10
2018-12-19T11:35:51.960Z,3.30
2018-12-19T11:38:20.784Z,3.30
2018-12-19T11:40:49.241Z,4.03
2018-12-19T11:43:17.691Z,3.45
2018-12-19T11:45:48.903Z,4.03
2018-12-19T11:48:17.621Z,5.00
2018-12-19T11:50:46.283Z,3.90
2018-12-19T11:53:14.946Z,4.47
2018-12-19T11:55:43.631Z,4.35
2018-12-19T11:58:12.302Z,4.22
2018-12-19T12:00:40.820Z,4.17
2018-12-19T12:03:09.209Z,3.55
2018-12-19T12:05:38.025Z,4.03
2018-12-19T12:08:06.821Z,4.28
2018-12-19T12:10:36.835Z,4.12
2018-12-19T12:13:05.865Z,4.08
2018-12-19T12:15:34.324Z,3.30
2018-12-19T12:18:02.875Z,3.77
2018-12-19T12:20:31.292Z,4.00
2018-12-19T12:23:00.159Z,3.95
2018-12-19T12:25:28.608Z,4.30
2018-12-19T12:27:57.982Z,4.05
2018-12-19T12:30:26.368Z,4.30
2018-12-19T12:32:54.791Z,3.98
2018-12-19T12:35:23.285Z,4.50
2018-12-19T12:37:52.069Z,4.40
2018-12-19T12:40:20.843Z,4.12
2018-12-19T12:42:49.343Z,4.17
2018-12-19T12:45:36.671Z,5.05
2018-12-19T12:48:05.083Z,4.15
2018-12-19T12:50:34.924Z,4.92
2018-12-19T12:53:03.377Z,4.62
2018-12-19T12:55:32.098Z,4.37
2018-12-19T12:58:01.162Z,4.00
2018-12-19T13:00:30.211Z,4.40
2018-12-19T13:02:58.766Z,4.62
2018-12-19T13:05:27.957Z,4.33
2018-12-19T13:07:56.603Z,4.67
2018-12-19T13:10:25.702Z,4.20
2018-12-19T13:12:54.741Z,4.47
2018-12-19T13:15:28.760Z,3.95
2018-12-19T13:17:58.104Z,3.30
2018-12-19T13:20:26.719Z,3.75
2018-12-19T13:22:55.507Z,4.08
2018-12-19T13:25:24.089Z,3.67
2018-12-19T13:27:53.171Z,3.85
2018-12-19T13:30:21.976Z,3.02
2018-12-19T13:32:51.164Z,3.80
2018-12-19T13:35:20.225Z,3.05
2018-12-19T13:37:49.024Z,3.47
2018-12-19T13:40:17.496Z,4.22
2018-12-19T13:42:46.406Z,2.98
2018-12-19T13:45:16.049Z,3.72
2018-12-19T13:47:44.503Z,3.15
2018-12-19T13:50:13.206Z,2.47
2018-12-19T13:52:41.700Z,2.55
2018-12-19T13:55:10.182Z,3.08
2018-12-19T13:57:39.752Z,2.60
2018-12-19T14:00:11.368Z,2.20
2018-12-19T14:02:40.052Z,2.85
2018-12-19T14:05:08.451Z,2.30
2018-12-19T14:07:37.439Z,1.70
2018-12-19T14:10:06.922Z,1.92
2018-12-19T14:12:35.844Z,2.55
2018-12-19T14:15:05.442Z,1.77
2018-12-19T14:17:33.895Z,2.00
2018-12-19T14:20:02.743Z,1.92
2018-12-19T14:22:31.335Z,2.47
2018-12-19T14:24:59.737Z,2.55
2018-12-19T14:27:28.432Z,2.55
2018-12-19T14:30:03.236Z,3.65
2018-12-19T14:32:32.080Z,3.00
2018-12-19T14:35:01.025Z,2.20
2018-12-19T14:37:29.730Z,3.30
2018-12-19T14:39:58.176Z,2.92
2018-12-19T14:42:26.582Z,2.52
2018-12-19T14:44:55.699Z,2.95
2018-12-19T14:47:24.093Z,2.40
2018-12-19T14:49:52.901Z,3.27
2018-12-19T14:52:21.210Z,3.15
2018-12-19T14:54:49.941Z,2.30
2018-12-19T14:57:18.360Z,3.08
2018-12-19T14:59:46.798Z,2.90
2018-12-19T15:02:15.284Z,2.20
2018-12-19T15:04:43.994Z,2.27
2018-12-19T15:07:12.774Z,2.10
2018-12-19T15:09:41.448Z,2.27
2018-12-19T15:12:10.461Z,2.17
2018-12-19T15:14:38.986Z,2.33
2018-12-19T15:17:13.696Z,2.58
2018-12-19T15:19:38.198Z,2.30
2018-12-19T15:22:06.861Z,2.50
2018-12-19T15:24:35.530Z,2.40
2018-12-19T15:27:04.382Z,2.85
2018-12-19T15:29:32.894Z,2.70
2018-12-19T15:32:01.984Z,2.40
2018-12-19T15:34:30.438Z,2.47
2018-12-19T15:37:00.153Z,2.40
2018-12-19T15:39:28.538Z,2.70
2018-12-19T15:41:57.071Z,2.47
2018-12-19T15:44:25.548Z,2.75
2018-12-19T15:46:54.018Z,2.80
2018-12-19T15:49:22.884Z,2.87
2018-12-19T15:51:52.621Z,3.10
2018-12-19T15:54:21.573Z,3.00
2018-12-19T15:56:50.419Z,2.75
2018-12-19T15:59:18.907Z,3.33
2018-12-19T16:01:47.364Z,2.90
2018-12-19T16:04:15.968Z,3.15
2018-12-19T16:06:44.571Z,3.27
2018-12-19T16:09:14.865Z,2.85
2018-12-19T16:11:43.293Z,3.02
2018-12-19T16:14:12.208Z,3.47
2018-12-19T16:16:40.823Z,3.65
2018-12-19T16:19:09.495Z,3.72
2018-12-19T16:21:38.805Z,3.60
2018-12-19T16:24:07.624Z,3.83
2018-12-19T16:26:36.136Z,3.70
2018-12-19T16:29:04.718Z,3.80
2018-12-19T16:31:33.175Z,3.92
2018-12-19T16:34:02.139Z,3.75
2018-12-19T16:36:31.463Z,2.87
2018-12-19T16:38:59.927Z,2.60
2018-12-19T16:41:29.521Z,3.05
2018-12-19T16:43:58.063Z,3.85
2018-12-19T16:46:26.935Z,3.30
2018-12-19T16:48:55.417Z,3.50
2018-12-19T16:51:23.816Z,3.90
2018-12-19T16:53:52.928Z,4.28
2018-12-19T16:56:21.610Z,3.70
2018-12-19T16:58:50.419Z,3.80
2018-12-19T17:01:19.296Z,3.67
2018-12-19T17:03:47.752Z,4.00
2018-12-19T17:06:16.227Z,3.80
2018-12-19T17:08:44.634Z,3.85
2018-12-19T17:11:13.078Z,4.67
2018-12-19T17:13:41.460Z,4.25
2018-12-19T17:16:10.004Z,3.80
2018-12-19T17:18:39.132Z,3.35
2018-12-19T17:21:07.724Z,3.70
2018-12-19T17:23:36.175Z,4.00
2018-12-19T17:26:11.430Z,3.98
2018-12-19T17:28:40.327Z,3.45
2018-12-19T17:31:08.690Z,4.15
2018-12-19T17:33:37.490Z,4.00
2018-12-19T17:36:06.789Z,4.65
2018-12-19T17:38:35.164Z,3.47
2018-12-19T17:41:04.151Z,3.25
2018-12-19T17:43:32.987Z,4.92
2018-12-19T17:46:01.769Z,3.70
2018-12-19T17:48:30.370Z,3.95
2018-12-19T17:50:59.160Z,4.60
2018-12-19T17:53:27.678Z,4.45
2018-12-19T17:55:56.593Z,4.08
2018-12-19T17:58:25.331Z,4.17
2018-12-19T18:00:54.304Z,5.10
2018-12-19T18:03:22.731Z,3.42
2018-12-19T18:05:51.523Z,3.85
2018-12-19T18:08:19.907Z,3.22
2018-12-19T18:10:48.957Z,4.58
2018-12-19T18:13:17.559Z,4.62
2018-12-19T18:15:46.040Z,4.53
2018-12-19T18:18:16.150Z,4.78
2018-12-19T18:20:44.587Z,4.20
2018-12-19T18:23:13.196Z,4.20
2018-12-19T18:25:41.601Z,4.90
2018-12-19T18:28:10.712Z,4.15
2018-12-19T18:30:39.998Z,4.47
2018-12-19T18:33:09.438Z,4.58
2018-12-19T18:35:38.265Z,4.15
2018-12-19T18:38:06.824Z,3.80
2018-12-19T18:40:35.205Z,4.70
2018-12-19T18:43:03.584Z,4.28
2018-12-19T18:45:33.133Z,4.45
2018-12-19T18:48:01.750Z,4.37
2018-12-19T18:50:30.149Z,4.40
2018-12-19T18:52:58.743Z,5.83
2018-12-19T18:55:27.773Z,4.62
2018-12-19T18:57:57.066Z,5.40
2018-12-19T19:00:33.849Z,4.78
2018-12-19T19:03:02.389Z,4.75
2018-12-19T19:05:32.170Z,4.12
2018-12-19T19:08:01.883Z,4.75
2018-12-19T19:10:30.750Z,4.47
2018-12-19T19:12:59.355Z,5.25
2018-12-19T19:15:28.374Z,4.40
2018-12-19T19:17:57.281Z,4.60
2018-12-19T19:20:26.003Z,4.83
2018-12-19T19:22:55.350Z,4.62
2018-12-19T19:25:24.248Z,5.20
2018-12-19T19:27:53.491Z,5.33
2018-12-19T19:30:22.153Z,5.22
2018-12-19T19:32:50.580Z,5.83
2018-12-19T19:35:19.311Z,5.12
2018-12-19T19:37:47.783Z,5.62
2018-12-19T19:40:16.292Z,5.22
2018-12-19T19:42:44.721Z,4.72
2018-12-19T19:45:13.828Z,5.70
2018-12-19T19:47:42.270Z,5.33
2018-12-19T19:50:10.721Z,5.55
2018-12-19T19:52:39.099Z,5.67
2018-12-19T19:55:07.998Z,5.83
2018-12-19T19:57:36.532Z,6.08
2018-12-19T20:00:07.075Z,5.45
2018-12-19T20:02:35.449Z,6.33
2018-12-19T20:05:04.669Z,6.75
2018-12-19T20:07:33.249Z,5.95
2018-12-19T20:10:02.709Z,5.58
2018-12-19T20:12:31.081Z,6.75
2018-12-19T20:14:59.702Z,5.78
2018-12-19T20:17:28.773Z,5.97
2018-12-19T20:19:57.337Z,6.00
2018-12-19T20:22:25.776Z,5.72
2018-12-19T20:24:54.529Z,5.72
2018-12-19T20:27:23.689Z,5.25
2018-12-19T20:29:52.076Z,6.55
2018-12-19T20:32:20.475Z,6.00
2018-12-19T20:34:49.343Z,6.65
2018-12-19T20:37:17.996Z,6.90
2018-12-19T20:39:46.500Z,6.53
2018-12-19T20:42:14.928Z,6.53
2018-12-19T20:44:43.376Z,7.20
2018-12-19T20:47:11.945Z,6.40
2018-12-19T20:49:40.528Z,6.58
2018-12-19T20:52:09.092Z,6.60
2018-12-19T20:54:38.484Z,6.67
2018-12-19T20:57:07.472Z,7.25
2018-12-19T20:59:36.151Z,5.92
2018-12-19T21:02:04.652Z,6.37
2018-12-19T21:04:33.152Z,7.05
2018-12-19T21:07:01.941Z,5.72
2018-12-19T21:09:30.496Z,6.58
2018-12-19T21:11:58.982Z,6.15
2018-12-19T21:14:28.348Z,6.17
2018-12-19T21:17:02.058Z,6.50
2018-12-19T21:19:31.021Z,6.25
2018-12-19T21:21:59.342Z,6.78
2018-12-19T21:24:27.729Z,6.55
2018-12-19T21:26:56.432Z,6.35
2018-12-19T21:29:24.845Z,7.45
2018-12-19T21:31:53.194Z,6.85
2018-12-19T21:34:21.663Z,6.75
2018-12-19T21:36:50.167Z,6.53
2018-12-19T21:39:19.359Z,6.75
2018-12-19T21:41:47.841Z,6.85
2018-12-19T21:44:16.271Z,7.00
2018-12-19T21:46:44.991Z,7.60
2018-12-19T21:49:13.461Z,7.90
2018-12-19T21:51:41.975Z,7.70
2018-12-19T21:54:11.223Z,7.12
2018-12-19T21:56:40.111Z,7.17
2018-12-19T21:59:08.831Z,7.12
2018-12-19T22:01:37.426Z,8.05
2018-12-19T22:04:06.126Z,6.83
2018-12-19T22:06:34.927Z,7.00
2018-12-19T22:09:06.444Z,7.72
2018-12-19T22:11:35.072Z,8.43
2018-12-19T22:14:03.957Z,7.62
2018-12-19T22:16:37.832Z,8.08
2018-12-19T22:19:06.826Z,7.62
2018-12-19T22:21:36.035Z,7.10
2018-12-19T22:24:04.527Z,7.00
2018-12-19T22:26:33.164Z,7.80
2018-12-19T22:29:01.740Z,7.53
2018-12-19T22:31:30.674Z,7.28
2018-12-19T22:33:59.139Z,8.10
2018-12-19T22:36:28.139Z,8.28
2018-12-19T22:38:56.875Z,7.75
2018-12-19T22:41:25.803Z,7.40
2018-12-19T22:43:54.375Z,7.65
2018-12-19T22:46:23.383Z,7.62
2018-12-19T22:48:52.208Z,8.43
2018-12-19T22:51:20.645Z,6.47
2018-12-19T22:53:49.213Z,7.12
2018-12-19T22:56:18.385Z,8.33
2018-12-19T22:58:47.392Z,7.45
2018-12-19T23:01:21.993Z,8.25
2018-12-19T23:03:55.955Z,7.50
2018-12-19T23:06:24.393Z,6.87
2018-12-19T23:08:53.236Z,8.18
2018-12-19T23:11:21.650Z,7.70
2018-12-19T23:13:50.136Z,6.80
2018-12-19T23:16:18.895Z,5.78
2018-12-19T23:18:48.436Z,7.78
2018-12-19T23:21:17.206Z,6.83
2018-12-19T23:23:46.739Z,6.60
2018-12-19T23:26:15.344Z,7.00
2018-12-19T23:28:44.080Z,6.75
2018-12-19T23:31:12.609Z,6.92
2018-12-19T23:33:41.411Z,7.00
2018-12-19T23:36:11.230Z,6.35
2018-12-19T23:38:39.703Z,8.05
2018-12-19T23:41:08.069Z,6.78
2018-12-19T23:43:36.622Z,6.78
2018-12-19T23:46:05.487Z,6.22
2018-12-19T23:48:36.133Z,7.15
2018-12-19T23:51:04.829Z,6.75
2018-12-19T23:53:33.646Z,6.42
2018-12-19T23:56:02.332Z,7.37
2018-12-19T23:58:30.795Z,8.45
